createdAt,value
2023-06-30T00:01:05.123Z,16.02
2023-06-30T00:03:46.833Z,16.01
2023-06-30T00:06:15.426Z,16.04
2023-06-30T00:08:43.079Z,16.06
2023-06-30T00:11:10.935Z,16.08
2023-06-30T00:13:38.644Z,16.08
2023-06-30T00:16:06.386Z,16.07
2023-06-30T00:18:34.118Z,16.05
2023-06-30T00:21:02.526Z,16.02
2023-06-30T00:23:30.201Z,16.00
2023-06-30T00:25:57.857Z,16.00
2023-06-30T00:28:25.538Z,16.01
2023-06-30T00:30:53.222Z,16.02
2023-06-30T00:33:20.937Z,16.00
2023-06-30T00:35:48.565Z,15.97
2023-06-30T00:38:16.363Z,15.92
2023-06-30T00:40:44.090Z,15.86
2023-06-30T00:43:11.885Z,15.81
2023-06-30T00:45:39.705Z,15.74
2023-06-30T00:48:07.570Z,15.71
2023-06-30T00:50:37.992Z,15.69
2023-06-30T00:53:05.657Z,15.68
2023-06-30T00:55:33.478Z,15.68
2023-06-30T00:58:01.148Z,15.66
2023-06-30T01:00:28.773Z,15.62
2023-06-30T01:03:02.685Z,15.59
2023-06-30T01:05:55.769Z,15.53
2023-06-30T01:08:26.585Z,15.47
2023-06-30T01:10:54.432Z,15.44
2023-06-30T01:13:22.254Z,15.42
2023-06-30T01:15:50.113Z,15.41
2023-06-30T01:18:21.020Z,15.38
2023-06-30T01:20:49.452Z,15.34
2023-06-30T01:23:18.782Z,15.30
2023-06-30T01:25:47.527Z,15.26
2023-06-30T01:28:15.377Z,15.20
2023-06-30T01:30:43.235Z,15.17
2023-06-30T01:33:11.838Z,15.17
2023-06-30T01:35:39.507Z,15.18
2023-06-30T01:38:07.282Z,15.19
2023-06-30T01:40:34.926Z,15.19
2023-06-30T01:43:02.563Z,15.17
2023-06-30T01:45:30.293Z,15.14
2023-06-30T01:47:58.214Z,15.10
2023-06-30T01:50:29.439Z,15.07
2023-06-30T01:52:58.325Z,15.07
2023-06-30T01:55:27.142Z,15.08
2023-06-30T01:57:54.805Z,15.05
2023-06-30T02:00:22.507Z,15.02
2023-06-30T02:02:50.302Z,14.97
2023-06-30T02:05:18.175Z,14.92
2023-06-30T02:07:46.031Z,14.89
2023-06-30T02:10:14.261Z,14.86
2023-06-30T02:12:41.949Z,14.85
2023-06-30T02:15:10.413Z,14.85
2023-06-30T02:17:38.294Z,14.83
2023-06-30T02:20:07.527Z,14.78
2023-06-30T02:22:35.309Z,14.74
2023-06-30T02:25:03.231Z,14.69
2023-06-30T02:27:33.076Z,14.65
2023-06-30T02:30:06.265Z,14.60
2023-06-30T02:32:39.237Z,14.58
2023-06-30T02:35:08.277Z,14.59
2023-06-30T02:37:36.703Z,14.61
2023-06-30T02:40:05.799Z,14.62
2023-06-30T02:42:33.509Z,14.60
2023-06-30T02:45:01.499Z,14.57
2023-06-30T02:47:29.216Z,14.52
2023-06-30T02:49:56.978Z,14.46
2023-06-30T02:52:24.744Z,14.42
2023-06-30T02:54:52.373Z,14.41
2023-06-30T02:57:20.627Z,14.42
2023-06-30T02:59:48.371Z,14.41
2023-06-30T03:02:16.426Z,14.38
2023-06-30T03:04:44.336Z,14.34
2023-06-30T03:07:12.280Z,14.30
2023-06-30T03:09:39.951Z,14.25
2023-06-30T03:12:08.222Z,14.23
2023-06-30T03:14:36.071Z,14.24
2023-06-30T03:17:04.066Z,14.24
2023-06-30T03:19:31.839Z,14.24
2023-06-30T03:22:00.144Z,14.24
2023-06-30T03:24:27.776Z,14.23
2023-06-30T03:26:55.624Z,14.21
2023-06-30T03:29:23.527Z,14.21
2023-06-30T03:31:51.271Z,14.22
2023-06-30T03:34:18.962Z,14.26
2023-06-30T03:36:46.616Z,14.31
2023-06-30T03:39:14.630Z,14.37
2023-06-30T03:41:42.742Z,14.41
2023-06-30T03:44:12.348Z,14.44
2023-06-30T03:46:40.023Z,14.48
2023-06-30T03:49:07.742Z,14.53
2023-06-30T03:51:35.480Z,14.60
2023-06-30T03:54:03.249Z,14.69
2023-06-30T03:56:31.074Z,14.78
2023-06-30T03:58:58.746Z,14.86
2023-06-30T04:01:27.328Z,14.92
2023-06-30T04:03:55.342Z,14.98
2023-06-30T04:06:23.355Z,15.04
2023-06-30T04:08:51.113Z,15.13
2023-06-30T04:11:18.893Z,15.25
2023-06-30T04:13:47.965Z,15.36
2023-06-30T04:16:15.643Z,15.45
2023-06-30T04:18:43.274Z,15.56
2023-06-30T04:21:11.398Z,15.66
2023-06-30T04:23:39.034Z,15.77
2023-06-30T04:26:06.680Z,15.89
2023-06-30T04:28:34.385Z,16.03
2023-06-30T04:31:04.607Z,16.19
2023-06-30T04:33:33.859Z,16.35
2023-06-30T04:36:02.028Z,16.45
2023-06-30T04:38:29.799Z,16.54
2023-06-30T04:40:57.811Z,16.62
2023-06-30T04:43:25.760Z,16.68
2023-06-30T04:45:53.844Z,16.76
2023-06-30T04:48:21.549Z,16.87
2023-06-30T04:50:49.474Z,16.95
2023-06-30T04:53:17.322Z,17.02
2023-06-30T04:55:45.311Z,17.09
2023-06-30T04:58:13.479Z,17.14
2023-06-30T05:00:41.980Z,17.19
2023-06-30T05:03:09.966Z,17.25
2023-06-30T05:05:37.913Z,17.32
2023-06-30T05:08:06.076Z,17.43
2023-06-30T05:10:33.820Z,17.52
2023-06-30T05:13:01.505Z,17.60
2023-06-30T05:15:29.430Z,17.66
2023-06-30T05:17:57.151Z,17.71
2023-06-30T05:20:24.840Z,17.77
2023-06-30T05:22:52.517Z,17.82
2023-06-30T05:25:20.169Z,17.89
2023-06-30T05:27:47.937Z,17.97
2023-06-30T05:30:15.827Z,18.06
2023-06-30T05:32:43.503Z,18.16
2023-06-30T05:35:11.239Z,18.25
2023-06-30T05:37:38.892Z,18.33
2023-06-30T05:40:07.219Z,18.42
2023-06-30T05:42:34.869Z,18.51
2023-06-30T05:45:02.736Z,18.64
2023-06-30T05:47:30.427Z,18.79
2023-06-30T05:49:58.138Z,18.94
2023-06-30T05:52:26.391Z,19.09
2023-06-30T05:54:54.233Z,19.23
2023-06-30T05:57:22.073Z,19.36
2023-06-30T05:59:49.849Z,19.50
2023-06-30T06:02:17.589Z,19.64
2023-06-30T06:04:45.528Z,19.76
2023-06-30T06:07:13.469Z,19.87
2023-06-30T06:09:41.192Z,19.98
2023-06-30T06:12:10.708Z,20.07
2023-06-30T06:14:38.359Z,20.14
2023-06-30T06:17:06.395Z,20.20
2023-06-30T06:19:34.162Z,20.23
2023-06-30T06:22:02.144Z,20.25
2023-06-30T06:24:29.831Z,20.28
2023-06-30T06:26:57.505Z,20.33
2023-06-30T06:29:25.534Z,20.38
2023-06-30T06:31:53.341Z,20.43
2023-06-30T06:34:21.356Z,20.48
2023-06-30T06:36:49.294Z,20.56
2023-06-30T06:39:17.031Z,20.62
2023-06-30T06:41:46.111Z,20.66
2023-06-30T06:44:13.910Z,20.70
2023-06-30T06:46:42.149Z,20.73
2023-06-30T06:49:10.547Z,20.76
2023-06-30T06:51:38.242Z,20.81
2023-06-30T06:54:06.108Z,20.86
2023-06-30T06:56:33.865Z,20.91
2023-06-30T06:59:01.521Z,20.97
2023-06-30T07:01:29.294Z,21.06
2023-06-30T07:03:57.029Z,21.12
2023-06-30T07:06:24.686Z,21.17
2023-06-30T07:08:52.514Z,21.22
2023-06-30T07:11:20.154Z,21.27
2023-06-30T07:13:47.820Z,21.34
2023-06-30T07:16:19.113Z,21.42
2023-06-30T07:18:47.139Z,21.52
2023-06-30T07:21:14.841Z,21.61
2023-06-30T07:23:42.504Z,21.70
2023-06-30T07:26:10.867Z,21.79
2023-06-30T07:28:38.532Z,21.88
2023-06-30T07:31:06.412Z,21.99
2023-06-30T07:33:34.161Z,22.12
2023-06-30T07:36:01.813Z,22.25
2023-06-30T07:38:29.480Z,22.37
2023-06-30T07:40:57.902Z,22.48
2023-06-30T07:43:26.806Z,22.60
2023-06-30T07:45:54.581Z,22.75
2023-06-30T07:48:22.585Z,22.89
2023-06-30T07:51:03.323Z,23.00
2023-06-30T07:53:36.678Z,23.13
2023-06-30T07:56:04.593Z,23.22
2023-06-30T07:58:32.542Z,23.33
2023-06-30T08:01:00.434Z,23.45
2023-06-30T08:03:28.289Z,23.57
2023-06-30T08:05:57.759Z,23.69
2023-06-30T08:08:25.679Z,23.79
2023-06-30T08:10:53.324Z,23.88
2023-06-30T08:13:20.980Z,23.95
2023-06-30T08:15:49.780Z,24.03
2023-06-30T08:18:31.548Z,24.13
2023-06-30T08:21:02.501Z,24.26
2023-06-30T08:23:30.313Z,24.39
2023-06-30T08:25:57.991Z,24.52
2023-06-30T08:28:25.652Z,24.64
2023-06-30T08:30:53.444Z,24.75
2023-06-30T08:36:01.081Z,25.01
2023-06-30T08:38:28.853Z,25.14
2023-06-30T08:40:56.572Z,25.26
2023-06-30T08:43:24.312Z,25.36
2023-06-30T08:45:54.185Z,25.48
2023-06-30T08:48:21.941Z,25.62
2023-06-30T08:50:50.886Z,25.73
2023-06-30T08:53:18.612Z,25.83
2023-06-30T08:55:47.437Z,25.96
2023-06-30T08:58:25.547Z,26.07
2023-06-30T09:00:54.848Z,26.18
2023-06-30T09:03:22.984Z,26.30
2023-06-30T09:05:55.932Z,26.41
2023-06-30T09:08:25.105Z,26.50
2023-06-30T09:10:52.862Z,26.59
2023-06-30T09:13:22.297Z,26.67
2023-06-30T09:15:50.219Z,26.73
2023-06-30T09:18:18.002Z,26.79
2023-06-30T09:20:45.722Z,26.88
2023-06-30T09:23:13.382Z,26.98
2023-06-30T09:25:41.357Z,27.10
2023-06-30T09:28:11.608Z,27.20
2023-06-30T09:30:41.919Z,27.28
2023-06-30T09:33:10.059Z,27.37
2023-06-30T09:35:39.652Z,27.46
2023-06-30T09:38:11.061Z,27.58
2023-06-30T09:40:38.829Z,27.67
2023-06-30T09:43:07.598Z,27.80
2023-06-30T09:45:35.858Z,27.94
2023-06-30T09:48:05.347Z,28.02
2023-06-30T09:50:35.011Z,28.09
2023-06-30T09:53:02.667Z,28.17
2023-06-30T09:55:30.340Z,28.23
2023-06-30T09:57:58.164Z,28.31
2023-06-30T10:00:36.499Z,28.43
2023-06-30T10:03:06.923Z,28.58
2023-06-30T10:05:34.888Z,28.69
2023-06-30T10:08:02.608Z,28.75
2023-06-30T10:10:30.423Z,28.81
2023-06-30T10:13:01.085Z,28.88
2023-06-30T10:15:28.796Z,28.96
2023-06-30T10:17:58.503Z,29.02
2023-06-30T10:20:34.458Z,29.09
2023-06-30T10:23:14.482Z,29.22
2023-06-30T10:25:42.173Z,29.36
2023-06-30T10:28:09.933Z,29.47
2023-06-30T10:30:37.836Z,29.53
2023-06-30T10:33:05.657Z,29.51
2023-06-30T10:35:33.672Z,29.49
2023-06-30T10:38:01.373Z,29.48
2023-06-30T10:40:30.838Z,29.51
2023-06-30T10:42:59.166Z,29.55
2023-06-30T10:45:31.881Z,29.59
2023-06-30T10:47:59.745Z,29.69
2023-06-30T10:50:27.443Z,29.79
2023-06-30T10:52:55.303Z,29.88
2023-06-30T10:55:24.089Z,29.98
2023-06-30T10:57:52.913Z,30.09
2023-06-30T11:00:22.956Z,30.19
2023-06-30T11:02:54.200Z,30.30
2023-06-30T11:05:32.019Z,30.40
2023-06-30T11:08:03.074Z,30.52
2023-06-30T11:10:35.990Z,30.61
2023-06-30T11:13:10.370Z,30.68
2023-06-30T11:15:51.579Z,30.79
2023-06-30T11:18:22.695Z,30.96
2023-06-30T11:21:04.502Z,31.08
2023-06-30T11:23:40.123Z,31.19
2023-06-30T11:26:16.120Z,31.31
2023-06-30T11:28:45.556Z,31.47
2023-06-30T11:31:13.515Z,31.51
2023-06-30T11:33:44.717Z,31.45
2023-06-30T11:36:19.325Z,31.40
2023-06-30T11:38:51.603Z,31.37
2023-06-30T11:41:20.326Z,31.24
2023-06-30T11:43:51.957Z,31.10
2023-06-30T11:46:19.738Z,30.99
2023-06-30T11:48:48.514Z,30.86
2023-06-30T11:51:17.606Z,30.73
2023-06-30T11:53:48.254Z,30.69
2023-06-30T11:56:19.843Z,30.64
2023-06-30T11:58:51.270Z,30.62
2023-06-30T12:01:21.446Z,30.74
2023-06-30T12:04:00.575Z,31.01
2023-06-30T12:06:29.522Z,31.32
2023-06-30T12:08:58.534Z,31.45
2023-06-30T12:11:26.206Z,31.62
2023-06-30T12:13:53.857Z,31.81
2023-06-30T12:16:21.889Z,31.93
2023-06-30T12:18:49.558Z,32.08
2023-06-30T12:21:17.207Z,32.28
2023-06-30T12:23:45.209Z,32.60
2023-06-30T12:26:13.277Z,32.90
2023-06-30T12:28:42.448Z,33.17
2023-06-30T12:31:10.251Z,33.42
2023-06-30T12:33:38.305Z,33.61
2023-06-30T12:36:07.531Z,33.71
2023-06-30T12:38:35.313Z,33.93
2023-06-30T12:41:04.375Z,34.20
2023-06-30T12:43:34.397Z,34.48
2023-06-30T12:46:02.426Z,34.72
2023-06-30T12:48:30.218Z,34.82
2023-06-30T12:50:59.129Z,34.91
2023-06-30T12:53:26.901Z,34.88
2023-06-30T12:55:54.711Z,34.69
2023-06-30T12:58:22.472Z,34.44
2023-06-30T13:00:54.348Z,34.13
2023-06-30T13:03:22.110Z,33.94
2023-06-30T13:05:52.139Z,33.78
2023-06-30T13:08:19.851Z,33.79
2023-06-30T13:10:49.516Z,33.98
2023-06-30T13:13:18.431Z,34.01
2023-06-30T13:15:46.267Z,33.87
2023-06-30T13:18:16.036Z,33.74
2023-06-30T13:20:45.950Z,33.71
2023-06-30T13:23:20.449Z,33.76
2023-06-30T13:25:59.700Z,33.78
2023-06-30T13:28:27.365Z,33.72
2023-06-30T13:30:55.030Z,33.44
2023-06-30T13:33:23.092Z,33.18
2023-06-30T13:35:50.770Z,33.22
2023-06-30T13:38:19.294Z,33.42
2023-06-30T13:40:47.259Z,33.63
2023-06-30T13:43:15.601Z,33.93
2023-06-30T13:45:43.828Z,34.17
2023-06-30T13:48:11.768Z,34.25
2023-06-30T13:50:39.944Z,34.40
2023-06-30T13:53:07.669Z,34.65
2023-06-30T13:55:36.344Z,34.91
2023-06-30T13:58:04.265Z,35.05
2023-06-30T14:00:32.047Z,34.98
2023-06-30T14:02:59.882Z,34.72
2023-06-30T14:05:27.846Z,34.38
2023-06-30T14:07:55.856Z,34.07
2023-06-30T14:10:23.532Z,33.75
2023-06-30T14:12:51.246Z,33.37
2023-06-30T14:15:20.810Z,33.00
2023-06-30T14:17:48.884Z,32.62
2023-06-30T14:20:16.604Z,32.30
2023-06-30T14:22:44.227Z,32.03
2023-06-30T14:25:20.388Z,31.85
2023-06-30T14:27:48.346Z,31.69
2023-06-30T14:30:16.324Z,31.56
2023-06-30T14:32:44.311Z,31.42
2023-06-30T14:35:12.344Z,31.27
2023-06-30T14:37:40.006Z,31.13
2023-06-30T14:40:08.222Z,31.02
2023-06-30T14:42:35.940Z,30.91
2023-06-30T14:45:04.699Z,30.80
2023-06-30T14:47:32.461Z,30.69
2023-06-30T14:50:00.139Z,30.62
2023-06-30T14:52:27.796Z,30.60
2023-06-30T14:54:55.608Z,30.66
2023-06-30T14:57:23.783Z,30.71
2023-06-30T14:59:51.417Z,30.71
2023-06-30T15:02:20.240Z,30.70
2023-06-30T15:04:49.677Z,30.64
2023-06-30T15:07:17.442Z,30.52
2023-06-30T15:09:45.136Z,30.42
2023-06-30T15:12:12.882Z,30.39
2023-06-30T15:14:40.637Z,30.38
2023-06-30T15:17:08.282Z,30.33
2023-06-30T15:19:36.156Z,30.30
2023-06-30T15:22:03.862Z,30.20
2023-06-30T15:24:31.686Z,30.07
2023-06-30T15:26:59.347Z,29.95
2023-06-30T15:29:27.011Z,29.85
2023-06-30T15:31:55.439Z,29.78
2023-06-30T15:34:23.347Z,29.73
2023-06-30T15:36:51.026Z,29.69
2023-06-30T15:39:18.691Z,29.67
2023-06-30T15:41:46.323Z,29.65
2023-06-30T15:44:14.000Z,29.62
2023-06-30T15:46:41.885Z,29.52
2023-06-30T15:49:09.612Z,29.39
2023-06-30T15:51:37.403Z,29.27
2023-06-30T15:54:05.370Z,29.15
2023-06-30T15:56:33.264Z,29.06
2023-06-30T15:59:01.326Z,28.97
2023-06-30T16:01:30.011Z,28.88
2023-06-30T16:03:57.823Z,28.78
2023-06-30T16:06:25.795Z,28.70
2023-06-30T16:08:53.621Z,28.62
2023-06-30T16:11:21.382Z,28.53
2023-06-30T16:13:49.033Z,28.45
2023-06-30T16:16:16.749Z,28.36
2023-06-30T16:18:45.561Z,28.29
2023-06-30T16:21:13.240Z,28.21
2023-06-30T16:23:41.117Z,28.14
2023-06-30T16:26:09.082Z,28.08
2023-06-30T16:28:37.052Z,28.03
2023-06-30T16:31:05.161Z,27.99
2023-06-30T16:33:33.049Z,27.94
2023-06-30T16:36:00.853Z,27.87
2023-06-30T16:38:29.053Z,27.83
2023-06-30T16:40:56.764Z,27.75
2023-06-30T16:43:25.317Z,27.68
2023-06-30T16:45:55.296Z,27.62
2023-06-30T16:48:23.058Z,27.55
2023-06-30T16:50:50.660Z,27.49
2023-06-30T16:53:18.770Z,27.43
2023-06-30T16:55:46.868Z,27.37
2023-06-30T16:58:15.178Z,27.31
2023-06-30T17:00:43.189Z,27.27
2023-06-30T17:03:11.169Z,27.21
2023-06-30T17:05:38.880Z,27.15
2023-06-30T17:08:06.817Z,27.10
2023-06-30T17:10:34.579Z,27.05
2023-06-30T17:13:04.394Z,26.99
2023-06-30T17:15:32.716Z,26.94
2023-06-30T17:18:00.424Z,26.89
2023-06-30T17:20:29.051Z,26.84
2023-06-30T17:22:56.945Z,26.79
2023-06-30T17:25:24.645Z,26.74
2023-06-30T17:27:52.316Z,26.70
2023-06-30T17:30:20.286Z,26.64
2023-06-30T17:32:48.106Z,26.59
2023-06-30T17:35:15.915Z,26.52
2023-06-30T17:37:43.569Z,26.46
2023-06-30T17:40:11.669Z,26.41
2023-06-30T17:42:39.340Z,26.34
2023-06-30T17:45:07.500Z,26.28
2023-06-30T17:47:35.164Z,26.20
2023-06-30T17:50:03.032Z,26.14
2023-06-30T17:52:31.031Z,26.08
2023-06-30T17:54:58.783Z,26.02
2023-06-30T17:57:26.404Z,25.97
2023-06-30T17:59:54.154Z,25.91
2023-06-30T18:02:22.016Z,25.85
2023-06-30T18:04:50.290Z,25.76
2023-06-30T18:07:19.552Z,25.65
2023-06-30T18:09:47.912Z,25.53
2023-06-30T18:12:15.695Z,25.41
2023-06-30T18:14:43.927Z,25.26
2023-06-30T18:17:11.734Z,25.04
2023-06-30T18:19:40.235Z,24.82
2023-06-30T18:22:08.999Z,24.66
2023-06-30T18:24:36.677Z,24.50
2023-06-30T18:27:04.874Z,24.36
2023-06-30T18:29:32.769Z,24.23
2023-06-30T18:32:00.993Z,24.14
2023-06-30T18:34:28.950Z,24.04
2023-06-30T18:36:56.639Z,23.93
2023-06-30T18:39:24.297Z,23.81
2023-06-30T18:41:51.970Z,23.69
2023-06-30T18:44:19.821Z,23.56
2023-06-30T18:46:48.332Z,23.44
2023-06-30T18:49:16.084Z,23.36
2023-06-30T18:51:44.110Z,23.28
2023-06-30T18:54:12.002Z,23.20
2023-06-30T18:56:39.644Z,23.12
2023-06-30T18:59:07.505Z,23.03
2023-06-30T19:01:35.304Z,22.91
2023-06-30T19:04:03.451Z,22.79
2023-06-30T19:06:31.457Z,22.68
2023-06-30T19:08:59.466Z,22.58
2023-06-30T19:11:27.139Z,22.51
2023-06-30T19:13:54.775Z,22.45
2023-06-30T19:16:22.454Z,22.38
2023-06-30T19:18:50.743Z,22.29
2023-06-30T19:21:18.422Z,22.23
2023-06-30T19:23:46.055Z,22.16
2023-06-30T19:26:13.838Z,22.09
2023-06-30T19:28:41.873Z,21.99
2023-06-30T19:31:09.646Z,21.88
2023-06-30T19:33:38.154Z,21.80
2023-06-30T19:36:06.359Z,21.72
2023-06-30T19:38:34.215Z,21.67
2023-06-30T19:41:01.953Z,21.63
2023-06-30T19:43:29.831Z,21.60
2023-06-30T19:45:57.517Z,21.56
2023-06-30T19:48:25.187Z,21.51
2023-06-30T19:50:53.047Z,21.47
2023-06-30T19:53:20.773Z,21.44
2023-06-30T19:55:49.199Z,21.42
2023-06-30T19:58:17.215Z,21.40
2023-06-30T20:00:44.945Z,21.37
2023-06-30T20:03:12.875Z,21.34
2023-06-30T20:05:40.585Z,21.29
2023-06-30T20:08:08.252Z,21.25
2023-06-30T20:10:35.879Z,21.16
2023-06-30T20:13:04.487Z,21.08
2023-06-30T20:15:33.335Z,21.01
2023-06-30T20:18:01.082Z,20.99
2023-06-30T20:20:29.089Z,20.95
2023-06-30T20:22:56.821Z,20.87
2023-06-30T20:25:24.794Z,20.79
2023-06-30T20:27:52.868Z,20.75
2023-06-30T20:30:21.249Z,20.73
2023-06-30T20:32:48.921Z,20.71
2023-06-30T20:35:20.075Z,20.69
2023-06-30T20:37:47.959Z,20.67
2023-06-30T20:40:15.930Z,20.63
2023-06-30T20:42:43.866Z,20.58
2023-06-30T20:45:11.588Z,20.50
2023-06-30T20:47:40.235Z,20.38
2023-06-30T20:50:09.420Z,20.26
2023-06-30T20:52:37.371Z,20.18
2023-06-30T20:55:05.583Z,20.13
2023-06-30T20:57:33.396Z,20.07
2023-06-30T21:00:01.070Z,19.97
2023-06-30T21:02:28.939Z,19.86
2023-06-30T21:04:59.011Z,19.76
2023-06-30T21:07:26.865Z,19.67
2023-06-30T21:09:54.484Z,19.59
2023-06-30T21:12:22.162Z,19.53
2023-06-30T21:14:50.010Z,19.51
2023-06-30T21:17:18.465Z,19.49
2023-06-30T21:19:46.861Z,19.46
2023-06-30T21:22:14.633Z,19.41
2023-06-30T21:24:42.260Z,19.34
2023-06-30T21:27:11.339Z,19.29
2023-06-30T21:29:39.486Z,19.25
2023-06-30T21:32:08.252Z,19.25
2023-06-30T21:34:36.586Z,19.24
2023-06-30T21:37:04.581Z,19.23
2023-06-30T21:39:32.206Z,19.21
2023-06-30T21:41:59.928Z,19.20
2023-06-30T21:44:27.647Z,19.19
2023-06-30T21:46:55.291Z,19.15
2023-06-30T21:49:22.917Z,19.15
2023-06-30T21:51:50.685Z,19.17
2023-06-30T21:54:27.113Z,19.20
2023-06-30T21:56:59.224Z,19.22
2023-06-30T21:59:26.860Z,19.23
2023-06-30T22:01:54.533Z,19.23
2023-06-30T22:04:22.247Z,19.22
2023-06-30T22:06:49.968Z,19.20
2023-06-30T22:09:17.625Z,19.17
2023-06-30T22:11:45.421Z,19.16
2023-06-30T22:14:13.578Z,19.17
2023-06-30T22:16:41.636Z,19.18
2023-06-30T22:19:09.726Z,19.19
2023-06-30T22:21:37.406Z,19.15
2023-06-30T22:24:05.401Z,19.13
2023-06-30T22:26:33.014Z,19.11
2023-06-30T22:29:00.674Z,19.09
2023-06-30T22:31:28.452Z,19.07
2023-06-30T22:33:56.203Z,19.06
2023-06-30T22:36:23.839Z,19.06
2023-06-30T22:38:52.322Z,19.07
2023-06-30T22:41:20.315Z,19.09
2023-06-30T22:43:48.708Z,19.09
2023-06-30T22:46:16.323Z,19.09
2023-06-30T22:48:44.426Z,19.07
2023-06-30T22:51:12.860Z,19.04
2023-06-30T22:53:40.517Z,19.02
2023-06-30T22:56:08.365Z,19.02
2023-06-30T22:58:36.163Z,19.04
2023-06-30T23:01:03.888Z,19.05
2023-06-30T23:03:31.835Z,19.04
2023-06-30T23:05:59.588Z,19.01
2023-06-30T23:08:27.288Z,18.98
2023-06-30T23:10:54.980Z,18.94
2023-06-30T23:13:22.615Z,18.91
2023-06-30T23:15:50.279Z,18.91
2023-06-30T23:18:20.441Z,18.93
2023-06-30T23:20:48.734Z,18.93
2023-06-30T23:23:16.731Z,18.92
2023-06-30T23:25:44.575Z,18.89
2023-06-30T23:28:12.244Z,18.87
2023-06-30T23:30:41.175Z,18.84
2023-06-30T23:33:09.057Z,18.83
2023-06-30T23:35:36.767Z,18.85
2023-06-30T23:38:04.850Z,18.86
2023-06-30T23:40:32.554Z,18.87
2023-06-30T23:43:01.092Z,18.87
2023-06-30T23:45:28.737Z,18.86
2023-06-30T23:47:56.641Z,18.85
2023-06-30T23:50:24.298Z,18.84
2023-06-30T23:52:51.982Z,18.86
2023-06-30T23:55:22.272Z,18.89
2023-06-30T23:57:51.371Z,18.90
